sensor_id;sensor_type;location;lat;lon;timestamp;P1;durP1;ratioP1;P2;durP2;ratioP2
77304;SDS011;66364;52.622;7.746;2023-04-19T00:01:12;7.70;;;6.80;;
77304;SDS011;66364;52.622;7.746;2023-04-19T00:03:13;8.28;;;7.00;;
77304;SDS011;66364;52.622;7.746;2023-04-19T00:05:14;9.40;;;8.07;;
77304;SDS011;66364;52.622;7.746;2023-04-19T00:07:15;11.60;;;7.63;;
77304;SDS011;66364;52.622;7.746;2023-04-19T00:09:16;7.83;;;7.03;;
77304;SDS011;66364;52.622;7.746;2023-04-19T00:11:16;8.27;;;7.43;;
77304;SDS011;66364;52.622;7.746;2023-04-19T00:13:18;8.90;;;7.83;;
77304;SDS011;66364;52.622;7.746;2023-04-19T00:15:18;8.00;;;7.30;;
77304;SDS011;66364;52.622;7.746;2023-04-19T00:17:19;13.73;;;8.00;;
77304;SDS011;66364;52.622;7.746;2023-04-19T00:19:20;8.60;;;7.80;;
77304;SDS011;66364;52.622;7.746;2023-04-19T00:21:21;8.70;;;7.87;;
77304;SDS011;66364;52.622;7.746;2023-04-19T00:23:22;9.90;;;7.00;;
77304;SDS011;66364;52.622;7.746;2023-04-19T00:25:23;8.15;;;7.35;;
77304;SDS011;66364;52.622;7.746;2023-04-19T00:27:25;8.33;;;7.55;;
77304;SDS011;66364;52.622;7.746;2023-04-19T00:29:26;7.50;;;6.70;;
77304;SDS011;66364;52.622;7.746;2023-04-19T00:31:26;7.30;;;6.53;;
77304;SDS011;66364;52.622;7.746;2023-04-19T00:33:27;8.80;;;7.87;;
77304;SDS011;66364;52.622;7.746;2023-04-19T00:35:28;7.60;;;6.90;;
77304;SDS011;66364;52.622;7.746;2023-04-19T00:37:29;8.80;;;7.40;;
77304;SDS011;66364;52.622;7.746;2023-04-19T00:39:30;7.43;;;6.73;;
77304;SDS011;66364;52.622;7.746;2023-04-19T00:41:31;6.95;;;6.25;;
77304;SDS011;66364;52.622;7.746;2023-04-19T00:43:32;8.25;;;6.55;;
77304;SDS011;66364;52.622;7.746;2023-04-19T00:45:33;7.60;;;6.90;;
77304;SDS011;66364;52.622;7.746;2023-04-19T00:47:36;7.05;;;6.35;;
77304;SDS011;66364;52.622;7.746;2023-04-19T00:49:38;8.63;;;7.00;;
77304;SDS011;66364;52.622;7.746;2023-04-19T00:51:40;8.63;;;6.75;;
77304;SDS011;66364;52.622;7.746;2023-04-19T00:53:42;7.53;;;6.40;;
77304;SDS011;66364;52.622;7.746;2023-04-19T00:55:43;8.18;;;7.37;;
77304;SDS011;66364;52.622;7.746;2023-04-19T00:57:44;9.50;;;7.50;;
77304;SDS011;66364;52.622;7.746;2023-04-19T00:59:45;8.30;;;7.35;;
77304;SDS011;66364;52.622;7.746;2023-04-19T01:01:47;8.58;;;7.12;;
77304;SDS011;66364;52.622;7.746;2023-04-19T01:03:50;8.20;;;7.47;;
77304;SDS011;66364;52.622;7.746;2023-04-19T01:05:53;9.98;;;6.70;;
77304;SDS011;66364;52.622;7.746;2023-04-19T01:07:55;9.33;;;7.20;;
77304;SDS011;66364;52.622;7.746;2023-04-19T01:09:57;8.85;;;7.95;;
77304;SDS011;66364;52.622;7.746;2023-04-19T01:12:00;8.40;;;7.50;;
77304;SDS011;66364;52.622;7.746;2023-04-19T01:14:04;7.55;;;6.85;;
77304;SDS011;66364;52.622;7.746;2023-04-19T01:16:07;7.47;;;6.65;;
77304;SDS011;66364;52.622;7.746;2023-04-19T01:18:10;9.30;;;7.55;;
77304;SDS011;66364;52.622;7.746;2023-04-19T01:20:13;8.40;;;7.62;;
77304;SDS011;66364;52.622;7.746;2023-04-19T01:22:18;6.53;;;6.03;;
77304;SDS011;66364;52.622;7.746;2023-04-19T01:24:22;8.05;;;6.35;;
77304;SDS011;66364;52.622;7.746;2023-04-19T01:26:24;7.95;;;7.25;;
77304;SDS011;66364;52.622;7.746;2023-04-19T01:28:27;8.65;;;7.80;;
77304;SDS011;66364;52.622;7.746;2023-04-19T01:30:30;8.78;;;7.83;;
77304;SDS011;66364;52.622;7.746;2023-04-19T01:32:33;9.08;;;7.50;;
77304;SDS011;66364;52.622;7.746;2023-04-19T01:34:36;7.70;;;7.00;;
77304;SDS011;66364;52.622;7.746;2023-04-19T01:36:38;9.23;;;8.28;;
77304;SDS011;66364;52.622;7.746;2023-04-19T01:38:41;8.28;;;6.78;;
77304;SDS011;66364;52.622;7.746;2023-04-19T01:40:43;7.20;;;6.50;;
77304;SDS011;66364;52.622;7.746;2023-04-19T01:42:44;9.73;;;6.90;;
77304;SDS011;66364;52.622;7.746;2023-04-19T01:44:45;8.70;;;7.60;;
77304;SDS011;66364;52.622;7.746;2023-04-19T01:46:47;7.90;;;7.20;;
77304;SDS011;66364;52.622;7.746;2023-04-19T01:48:47;9.27;;;7.70;;
77304;SDS011;66364;52.622;7.746;2023-04-19T01:50:48;7.83;;;7.00;;
77304;SDS011;66364;52.622;7.746;2023-04-19T01:52:49;9.03;;;7.13;;
77304;SDS011;66364;52.622;7.746;2023-04-19T01:54:51;7.65;;;6.62;;
77304;SDS011;66364;52.622;7.746;2023-04-19T01:56:51;7.63;;;6.93;;
77304;SDS011;66364;52.622;7.746;2023-04-19T01:58:52;7.30;;;6.63;;
77304;SDS011;66364;52.622;7.746;2023-04-19T02:00:54;10.18;;;6.70;;
77304;SDS011;66364;52.622;7.746;2023-04-19T02:02:57;6.83;;;6.12;;
77304;SDS011;66364;52.622;7.746;2023-04-19T02:04:58;7.05;;;5.97;;
77304;SDS011;66364;52.622;7.746;2023-04-19T02:06:59;9.00;;;6.27;;
77304;SDS011;66364;52.622;7.746;2023-04-19T02:09:00;7.00;;;5.97;;
77304;SDS011;66364;52.622;7.746;2023-04-19T02:11:05;6.93;;;6.30;;
77304;SDS011;66364;52.622;7.746;2023-04-19T02:13:07;7.60;;;6.83;;
77304;SDS011;66364;52.622;7.746;2023-04-19T02:15:08;7.08;;;6.42;;
77304;SDS011;66364;52.622;7.746;2023-04-19T02:17:09;7.25;;;5.90;;
77304;SDS011;66364;52.622;7.746;2023-04-19T02:19:10;6.47;;;5.87;;
77304;SDS011;66364;52.622;7.746;2023-04-19T02:21:11;11.57;;;6.08;;
77304;SDS011;66364;52.622;7.746;2023-04-19T02:23:13;8.05;;;7.12;;
77304;SDS011;66364;52.622;7.746;2023-04-19T02:25:14;6.92;;;6.30;;
77304;SDS011;66364;52.622;7.746;2023-04-19T02:27:15;8.25;;;6.45;;
77304;SDS011;66364;52.622;7.746;2023-04-19T02:29:17;6.33;;;5.72;;
77304;SDS011;66364;52.622;7.746;2023-04-19T02:31:18;6.50;;;5.87;;
77304;SDS011;66364;52.622;7.746;2023-04-19T02:33:20;7.90;;;5.90;;
77304;SDS011;66364;52.622;7.746;2023-04-19T02:35:22;6.85;;;6.15;;
77304;SDS011;66364;52.622;7.746;2023-04-19T02:37:23;5.87;;;5.37;;
77304;SDS011;66364;52.622;7.746;2023-04-19T02:39:24;6.87;;;5.92;;
77304;SDS011;66364;52.622;7.746;2023-04-19T02:41:25;5.93;;;4.90;;
77304;SDS011;66364;52.622;7.746;2023-04-19T02:43:25;6.50;;;5.90;;
77304;SDS011;66364;52.622;7.746;2023-04-19T02:45:26;7.97;;;5.67;;
77304;SDS011;66364;52.622;7.746;2023-04-19T02:47:27;4.80;;;4.40;;
77304;SDS011;66364;52.622;7.746;2023-04-19T02:49:29;5.87;;;5.37;;
77304;SDS011;66364;52.622;7.746;2023-04-19T02:51:37;6.22;;;5.72;;
77304;SDS011;66364;52.622;7.746;2023-04-19T02:53:37;8.28;;;5.37;;
77304;SDS011;66364;52.622;7.746;2023-04-19T02:55:38;5.30;;;4.80;;
77304;SDS011;66364;52.622;7.746;2023-04-19T02:57:39;6.43;;;5.83;;
77304;SDS011;66364;52.622;7.746;2023-04-19T02:59:40;5.50;;;5.10;;
77304;SDS011;66364;52.622;7.746;2023-04-19T03:01:41;6.75;;;5.65;;
77304;SDS011;66364;52.622;7.746;2023-04-19T03:03:43;7.00;;;4.37;;
77304;SDS011;66364;52.622;7.746;2023-04-19T03:05:43;5.90;;;5.07;;
77304;SDS011;66364;52.622;7.746;2023-04-19T03:07:44;7.22;;;5.80;;
77304;SDS011;66364;52.622;7.746;2023-04-19T03:09:45;5.93;;;4.50;;
77304;SDS011;66364;52.622;7.746;2023-04-19T03:11:46;7.12;;;5.47;;
77304;SDS011;66364;52.622;7.746;2023-04-19T03:13:47;8.77;;;5.43;;
77304;SDS011;66364;52.622;7.746;2023-04-19T03:15:48;7.00;;;5.40;;
77304;SDS011;66364;52.622;7.746;2023-04-19T03:17:49;5.40;;;4.90;;
77304;SDS011;66364;52.622;7.746;2023-04-19T03:19:50;5.27;;;4.63;;
77304;SDS011;66364;52.622;7.746;2023-04-19T03:21:51;6.20;;;4.85;;
77304;SDS011;66364;52.622;7.746;2023-04-19T03:23:52;5.60;;;4.55;;
77304;SDS011;66364;52.622;7.746;2023-04-19T03:25:54;6.05;;;5.25;;
77304;SDS011;66364;52.622;7.746;2023-04-19T03:27:55;8.90;;;5.20;;
77304;SDS011;66364;52.622;7.746;2023-04-19T03:30:00;5.80;;;5.20;;
77304;SDS011;66364;52.622;7.746;2023-04-19T03:32:01;5.78;;;4.15;;
77304;SDS011;66364;52.622;7.746;2023-04-19T03:34:02;4.50;;;4.10;;
77304;SDS011;66364;52.622;7.746;2023-04-19T03:36:03;6.65;;;4.80;;
77304;SDS011;66364;52.622;7.746;2023-04-19T03:38:05;6.53;;;4.42;;
77304;SDS011;66364;52.622;7.746;2023-04-19T03:40:06;5.03;;;4.30;;
77304;SDS011;66364;52.622;7.746;2023-04-19T03:42:07;4.87;;;4.22;;
77304;SDS011;66364;52.622;7.746;2023-04-19T03:44:08;5.23;;;4.50;;
77304;SDS011;66364;52.622;7.746;2023-04-19T03:46:09;4.50;;;3.93;;
77304;SDS011;66364;52.622;7.746;2023-04-19T03:48:10;5.10;;;3.83;;
77304;SDS011;66364;52.622;7.746;2023-04-19T03:50:11;7.05;;;4.10;;
77304;SDS011;66364;52.622;7.746;2023-04-19T03:52:12;6.77;;;5.00;;
77304;SDS011;66364;52.622;7.746;2023-04-19T03:54:13;5.17;;;4.50;;
77304;SDS011;66364;52.622;7.746;2023-04-19T03:56:14;6.10;;;5.40;;
77304;SDS011;66364;52.622;7.746;2023-04-19T03:58:15;4.22;;;3.85;;
77304;SDS011;66364;52.622;7.746;2023-04-19T04:00:16;4.65;;;4.25;;
77304;SDS011;66364;52.622;7.746;2023-04-19T04:02:18;4.75;;;4.35;;
77304;SDS011;66364;52.622;7.746;2023-04-19T04:04:18;4.63;;;4.23;;
77304;SDS011;66364;52.622;7.746;2023-04-19T04:06:19;8.10;;;4.67;;
77304;SDS011;66364;52.622;7.746;2023-04-19T04:08:20;6.00;;;4.60;;
77304;SDS011;66364;52.622;7.746;2023-04-19T04:10:21;5.53;;;4.95;;
77304;SDS011;66364;52.622;7.746;2023-04-19T04:12:22;7.22;;;4.33;;
77304;SDS011;66364;52.622;7.746;2023-04-19T04:14:23;4.07;;;3.73;;
77304;SDS011;66364;52.622;7.746;2023-04-19T04:16:24;8.00;;;3.55;;
77304;SDS011;66364;52.622;7.746;2023-04-19T04:18:25;4.53;;;3.95;;
77304;SDS011;66364;52.622;7.746;2023-04-19T04:20:26;6.62;;;4.40;;
77304;SDS011;66364;52.622;7.746;2023-04-19T04:22:28;4.67;;;3.60;;
77304;SDS011;66364;52.622;7.746;2023-04-19T04:24:29;5.50;;;3.97;;
77304;SDS011;66364;52.622;7.746;2023-04-19T04:26:30;4.53;;;4.13;;
77304;SDS011;66364;52.622;7.746;2023-04-19T04:28:31;7.33;;;4.30;;
77304;SDS011;66364;52.622;7.746;2023-04-19T04:30:32;6.90;;;4.50;;
77304;SDS011;66364;52.622;7.746;2023-04-19T04:32:33;5.08;;;3.87;;
77304;SDS011;66364;52.622;7.746;2023-04-19T04:34:35;5.45;;;4.78;;
77304;SDS011;66364;52.622;7.746;2023-04-19T04:36:36;5.80;;;4.80;;
77304;SDS011;66364;52.622;7.746;2023-04-19T04:38:37;5.20;;;4.47;;
77304;SDS011;66364;52.622;7.746;2023-04-19T04:40:38;4.33;;;3.92;;
77304;SDS011;66364;52.622;7.746;2023-04-19T04:42:39;5.23;;;4.73;;
77304;SDS011;66364;52.622;7.746;2023-04-19T04:44:40;6.30;;;5.10;;
77304;SDS011;66364;52.622;7.746;2023-04-19T04:46:41;4.60;;;4.20;;
77304;SDS011;66364;52.622;7.746;2023-04-19T04:48:42;8.00;;;3.98;;
77304;SDS011;66364;52.622;7.746;2023-04-19T04:50:43;6.08;;;4.15;;
77304;SDS011;66364;52.622;7.746;2023-04-19T04:52:44;4.50;;;4.10;;
77304;SDS011;66364;52.622;7.746;2023-04-19T04:54:45;8.27;;;4.87;;
77304;SDS011;66364;52.622;7.746;2023-04-19T04:56:46;5.05;;;4.08;;
77304;SDS011;66364;52.622;7.746;2023-04-19T04:58:46;7.63;;;4.97;;
77304;SDS011;66364;52.622;7.746;2023-04-19T05:00:47;5.83;;;5.10;;
77304;SDS011;66364;52.622;7.746;2023-04-19T05:02:48;4.90;;;4.40;;
77304;SDS011;66364;52.622;7.746;2023-04-19T05:04:49;8.43;;;5.13;;
77304;SDS011;66364;52.622;7.746;2023-04-19T05:06:50;5.93;;;4.80;;
77304;SDS011;66364;52.622;7.746;2023-04-19T05:08:51;5.20;;;4.70;;
77304;SDS011;66364;52.622;7.746;2023-04-19T05:10:52;7.87;;;4.37;;
77304;SDS011;66364;52.622;7.746;2023-04-19T05:12:54;7.83;;;4.65;;
77304;SDS011;66364;52.622;7.746;2023-04-19T05:14:55;6.10;;;4.25;;
77304;SDS011;66364;52.622;7.746;2023-04-19T05:16:56;6.33;;;3.97;;
77304;SDS011;66364;52.622;7.746;2023-04-19T05:18:57;6.42;;;5.55;;
77304;SDS011;66364;52.622;7.746;2023-04-19T05:20:58;5.13;;;4.60;;
77304;SDS011;66364;52.622;7.746;2023-04-19T05:22:59;6.85;;;5.35;;
77304;SDS011;66364;52.622;7.746;2023-04-19T05:25:01;7.90;;;4.40;;
77304;SDS011;66364;52.622;7.746;2023-04-19T05:27:02;5.00;;;4.60;;
77304;SDS011;66364;52.622;7.746;2023-04-19T05:29:04;6.45;;;4.65;;
77304;SDS011;66364;52.622;7.746;2023-04-19T05:31:04;5.57;;;4.47;;
77304;SDS011;66364;52.622;7.746;2023-04-19T05:33:05;4.77;;;4.30;;
77304;SDS011;66364;52.622;7.746;2023-04-19T05:35:07;7.30;;;5.53;;
77304;SDS011;66364;52.622;7.746;2023-04-19T05:37:08;5.05;;;4.55;;
77304;SDS011;66364;52.622;7.746;2023-04-19T05:39:10;4.70;;;4.10;;
77304;SDS011;66364;52.622;7.746;2023-04-19T05:41:11;6.58;;;5.28;;
77304;SDS011;66364;52.622;7.746;2023-04-19T05:43:12;5.63;;;4.10;;
77304;SDS011;66364;52.622;7.746;2023-04-19T05:45:14;4.47;;;4.07;;
77304;SDS011;66364;52.622;7.746;2023-04-19T05:47:16;5.58;;;4.35;;
77304;SDS011;66364;52.622;7.746;2023-04-19T05:49:17;6.17;;;5.40;;
77304;SDS011;66364;52.622;7.746;2023-04-19T05:51:18;6.73;;;4.60;;
77304;SDS011;66364;52.622;7.746;2023-04-19T05:53:18;5.47;;;4.97;;
77304;SDS011;66364;52.622;7.746;2023-04-19T05:55:19;6.70;;;5.72;;
77304;SDS011;66364;52.622;7.746;2023-04-19T05:57:21;5.65;;;4.53;;
77304;SDS011;66364;52.622;7.746;2023-04-19T05:59:22;6.27;;;4.40;;
77304;SDS011;66364;52.622;7.746;2023-04-19T06:01:23;4.53;;;4.13;;
77304;SDS011;66364;52.622;7.746;2023-04-19T06:03:24;5.42;;;4.58;;
77304;SDS011;66364;52.622;7.746;2023-04-19T06:05:25;4.62;;;4.20;;
77304;SDS011;66364;52.622;7.746;2023-04-19T06:07:27;5.37;;;4.97;;
77304;SDS011;66364;52.622;7.746;2023-04-19T06:09:28;4.37;;;4.00;;
77304;SDS011;66364;52.622;7.746;2023-04-19T06:11:29;4.77;;;4.00;;
77304;SDS011;66364;52.622;7.746;2023-04-19T06:13:40;14.05;;;4.75;;
77304;SDS011;66364;52.622;7.746;2023-04-19T06:15:47;5.10;;;4.60;;
77304;SDS011;66364;52.622;7.746;2023-04-19T06:17:48;6.87;;;4.20;;
77304;SDS011;66364;52.622;7.746;2023-04-19T06:22:01;7.03;;;4.95;;
77304;SDS011;66364;52.622;7.746;2023-04-19T06:24:11;5.08;;;4.22;;
77304;SDS011;66364;52.622;7.746;2023-04-19T06:26:13;8.03;;;4.30;;
77304;SDS011;66364;52.622;7.746;2023-04-19T06:28:13;4.73;;;4.10;;
77304;SDS011;66364;52.622;7.746;2023-04-19T06:32:19;4.17;;;3.87;;
77304;SDS011;66364;52.622;7.746;2023-04-19T06:34:19;3.97;;;3.63;;
77304;SDS011;66364;52.622;7.746;2023-04-19T06:36:21;4.65;;;3.95;;
77304;SDS011;66364;52.622;7.746;2023-04-19T06:38:22;4.62;;;4.17;;
77304;SDS011;66364;52.622;7.746;2023-04-19T06:40:23;6.33;;;3.47;;
77304;SDS011;66364;52.622;7.746;2023-04-19T06:42:25;6.35;;;4.30;;
77304;SDS011;66364;52.622;7.746;2023-04-19T06:44:26;4.00;;;3.67;;
77304;SDS011;66364;52.622;7.746;2023-04-19T06:46:27;7.87;;;4.80;;
77304;SDS011;66364;52.622;7.746;2023-04-19T06:48:27;8.73;;;3.43;;
77304;SDS011;66364;52.622;7.746;2023-04-19T06:50:28;9.73;;;3.93;;
77304;SDS011;66364;52.622;7.746;2023-04-19T06:52:29;4.62;;;3.95;;
77304;SDS011;66364;52.622;7.746;2023-04-19T06:54:31;4.47;;;3.40;;
77304;SDS011;66364;52.622;7.746;2023-04-19T06:56:48;3.90;;;3.55;;
77304;SDS011;66364;52.622;7.746;2023-04-19T06:58:49;3.55;;;3.25;;
77304;SDS011;66364;52.622;7.746;2023-04-19T07:00:50;6.70;;;3.70;;
77304;SDS011;66364;52.622;7.746;2023-04-19T07:02:51;3.85;;;3.45;;
77304;SDS011;66364;52.622;7.746;2023-04-19T07:04:52;4.17;;;3.77;;
77304;SDS011;66364;52.622;7.746;2023-04-19T07:06:53;5.03;;;3.93;;
77304;SDS011;66364;52.622;7.746;2023-04-19T07:08:54;4.47;;;3.70;;
77304;SDS011;66364;52.622;7.746;2023-04-19T07:10:55;3.85;;;3.55;;
77304;SDS011;66364;52.622;7.746;2023-04-19T07:12:56;4.00;;;3.62;;
77304;SDS011;66364;52.622;7.746;2023-04-19T07:14:57;4.07;;;3.37;;
77304;SDS011;66364;52.622;7.746;2023-04-19T07:16:59;4.40;;;3.55;;
77304;SDS011;66364;52.622;7.746;2023-04-19T07:19:00;5.17;;;3.17;;
77304;SDS011;66364;52.622;7.746;2023-04-19T07:21:01;4.97;;;3.92;;
77304;SDS011;66364;52.622;7.746;2023-04-19T07:23:02;4.45;;;3.40;;
77304;SDS011;66364;52.622;7.746;2023-04-19T07:25:03;4.80;;;3.42;;
77304;SDS011;66364;52.622;7.746;2023-04-19T07:27:04;3.75;;;3.45;;
77304;SDS011;66364;52.622;7.746;2023-04-19T07:29:05;3.50;;;3.10;;
77304;SDS011;66364;52.622;7.746;2023-04-19T07:31:06;3.50;;;3.20;;
77304;SDS011;66364;52.622;7.746;2023-04-19T07:33:07;4.58;;;3.15;;
77304;SDS011;66364;52.622;7.746;2023-04-19T07:35:08;4.80;;;3.70;;
77304;SDS011;66364;52.622;7.746;2023-04-19T07:37:09;3.15;;;2.85;;
77304;SDS011;66364;52.622;7.746;2023-04-19T07:39:10;3.87;;;3.33;;
77304;SDS011;66364;52.622;7.746;2023-04-19T07:41:12;4.22;;;3.83;;
77304;SDS011;66364;52.622;7.746;2023-04-19T07:43:13;5.20;;;3.50;;
77304;SDS011;66364;52.622;7.746;2023-04-19T07:45:14;3.63;;;3.33;;
77304;SDS011;66364;52.622;7.746;2023-04-19T07:47:15;4.00;;;3.20;;
77304;SDS011;66364;52.622;7.746;2023-04-19T07:49:16;3.90;;;3.50;;
77304;SDS011;66364;52.622;7.746;2023-04-19T07:51:17;6.13;;;3.53;;
77304;SDS011;66364;52.622;7.746;2023-04-19T07:53:18;3.63;;;2.93;;
77304;SDS011;66364;52.622;7.746;2023-04-19T07:55:19;3.52;;;3.22;;
77304;SDS011;66364;52.622;7.746;2023-04-19T07:57:21;5.50;;;3.45;;
77304;SDS011;66364;52.622;7.746;2023-04-19T07:59:22;3.60;;;3.30;;
77304;SDS011;66364;52.622;7.746;2023-04-19T08:01:23;3.37;;;3.02;;
77304;SDS011;66364;52.622;7.746;2023-04-19T08:03:25;6.70;;;4.10;;
77304;SDS011;66364;52.622;7.746;2023-04-19T08:05:26;3.83;;;3.35;;
77304;SDS011;66364;52.622;7.746;2023-04-19T08:07:27;5.03;;;4.03;;
77304;SDS011;66364;52.622;7.746;2023-04-19T08:09:28;4.80;;;3.20;;
77304;SDS011;66364;52.622;7.746;2023-04-19T08:11:29;5.57;;;3.50;;
77304;SDS011;66364;52.622;7.746;2023-04-19T08:13:30;4.12;;;3.00;;
77304;SDS011;66364;52.622;7.746;2023-04-19T08:15:35;3.20;;;3.00;;
77304;SDS011;66364;52.622;7.746;2023-04-19T08:17:35;3.33;;;2.75;;
77304;SDS011;66364;52.622;7.746;2023-04-19T08:19:36;4.50;;;4.10;;
77304;SDS011;66364;52.622;7.746;2023-04-19T08:21:37;3.12;;;2.90;;
77304;SDS011;66364;52.622;7.746;2023-04-19T08:23:38;4.23;;;3.90;;
77304;SDS011;66364;52.622;7.746;2023-04-19T08:25:39;3.70;;;3.40;;
77304;SDS011;66364;52.622;7.746;2023-04-19T08:27:40;3.40;;;3.10;;
77304;SDS011;66364;52.622;7.746;2023-04-19T08:29:41;3.65;;;3.10;;
77304;SDS011;66364;52.622;7.746;2023-04-19T08:31:42;4.63;;;3.70;;
77304;SDS011;66364;52.622;7.746;2023-04-19T08:33:43;4.55;;;3.50;;
77304;SDS011;66364;52.622;7.746;2023-04-19T08:35:45;3.58;;;3.27;;
77304;SDS011;66364;52.622;7.746;2023-04-19T08:37:46;7.63;;;4.53;;
77304;SDS011;66364;52.622;7.746;2023-04-19T08:39:47;5.78;;;3.67;;
77304;SDS011;66364;52.622;7.746;2023-04-19T08:41:48;4.00;;;3.70;;
77304;SDS011;66364;52.622;7.746;2023-04-19T08:43:49;4.30;;;3.80;;
77304;SDS011;66364;52.622;7.746;2023-04-19T08:45:52;4.70;;;4.15;;
77304;SDS011;66364;52.622;7.746;2023-04-19T08:47:55;7.60;;;3.87;;
77304;SDS011;66364;52.622;7.746;2023-04-19T08:50:02;4.67;;;3.80;;
77304;SDS011;66364;52.622;7.746;2023-04-19T08:52:09;3.90;;;3.10;;
77304;SDS011;66364;52.622;7.746;2023-04-19T08:54:13;3.62;;;3.33;;
77304;SDS011;66364;52.622;7.746;2023-04-19T08:56:15;3.60;;;3.20;;
77304;SDS011;66364;52.622;7.746;2023-04-19T08:58:16;4.80;;;3.47;;
77304;SDS011;66364;52.622;7.746;2023-04-19T09:00:17;4.47;;;2.90;;
77304;SDS011;66364;52.622;7.746;2023-04-19T09:02:19;4.55;;;2.55;;
77304;SDS011;66364;52.622;7.746;2023-04-19T09:04:20;3.67;;;3.20;;
77304;SDS011;66364;52.622;7.746;2023-04-19T09:06:22;2.72;;;2.52;;
77304;SDS011;66364;52.622;7.746;2023-04-19T09:08:25;4.47;;;3.20;;
77304;SDS011;66364;52.622;7.746;2023-04-19T09:10:27;5.08;;;3.50;;
77304;SDS011;66364;52.622;7.746;2023-04-19T09:12:28;3.90;;;3.50;;
77304;SDS011;66364;52.622;7.746;2023-04-19T09:14:30;4.00;;;3.30;;
77304;SDS011;66364;52.622;7.746;2023-04-19T09:16:31;3.27;;;2.97;;
77304;SDS011;66364;52.622;7.746;2023-04-19T09:18:33;3.35;;;3.05;;
77304;SDS011;66364;52.622;7.746;2023-04-19T09:20:38;3.40;;;2.08;;
77304;SDS011;66364;52.622;7.746;2023-04-19T09:22:40;5.30;;;3.12;;
77304;SDS011;66364;52.622;7.746;2023-04-19T09:24:42;4.12;;;3.50;;
77304;SDS011;66364;52.622;7.746;2023-04-19T09:26:52;3.15;;;2.50;;
77304;SDS011;66364;52.622;7.746;2023-04-19T09:28:55;4.97;;;2.60;;
77304;SDS011;66364;52.622;7.746;2023-04-19T09:30:59;3.00;;;2.80;;
77304;SDS011;66364;52.622;7.746;2023-04-19T09:33:04;5.55;;;3.50;;
77304;SDS011;66364;52.622;7.746;2023-04-19T09:35:05;3.85;;;3.55;;
77304;SDS011;66364;52.622;7.746;2023-04-19T09:37:10;6.10;;;3.10;;
77304;SDS011;66364;52.622;7.746;2023-04-19T09:39:12;5.37;;;3.47;;
77304;SDS011;66364;52.622;7.746;2023-04-19T09:41:13;3.30;;;2.90;;
77304;SDS011;66364;52.622;7.746;2023-04-19T09:43:22;3.12;;;2.50;;
77304;SDS011;66364;52.622;7.746;2023-04-19T09:45:19;3.22;;;2.77;;
77304;SDS011;66364;52.622;7.746;2023-04-19T09:47:21;4.17;;;2.90;;
77304;SDS011;66364;52.622;7.746;2023-04-19T09:49:24;5.03;;;3.12;;
77304;SDS011;66364;52.622;7.746;2023-04-19T09:51:25;9.10;;;2.83;;
77304;SDS011;66364;52.622;7.746;2023-04-19T09:53:30;5.75;;;2.67;;
77304;SDS011;66364;52.622;7.746;2023-04-19T09:55:31;2.60;;;2.40;;
77304;SDS011;66364;52.622;7.746;2023-04-19T09:57:34;3.30;;;3.00;;
77304;SDS011;66364;52.622;7.746;2023-04-19T09:59:35;5.42;;;2.42;;
77304;SDS011;66364;52.622;7.746;2023-04-19T10:01:38;5.45;;;3.25;;
77304;SDS011;66364;52.622;7.746;2023-04-19T10:03:49;3.15;;;2.22;;
77304;SDS011;66364;52.622;7.746;2023-04-19T10:05:52;5.00;;;3.67;;
77304;SDS011;66364;52.622;7.746;2023-04-19T10:07:53;3.60;;;3.00;;
77304;SDS011;66364;52.622;7.746;2023-04-19T10:09:56;2.65;;;2.33;;
77304;SDS011;66364;52.622;7.746;2023-04-19T10:11:58;6.83;;;3.33;;
77304;SDS011;66364;52.622;7.746;2023-04-19T10:14:00;3.90;;;2.65;;
77304;SDS011;66364;52.622;7.746;2023-04-19T10:16:05;5.42;;;3.10;;
77304;SDS011;66364;52.622;7.746;2023-04-19T10:18:07;2.90;;;2.70;;
77304;SDS011;66364;52.622;7.746;2023-04-19T10:20:19;4.37;;;2.92;;
77304;SDS011;66364;52.622;7.746;2023-04-19T10:22:26;12.23;;;3.80;;
77304;SDS011;66364;52.622;7.746;2023-04-19T10:24:27;3.92;;;2.65;;
77304;SDS011;66364;52.622;7.746;2023-04-19T10:26:28;3.70;;;3.10;;
77304;SDS011;66364;52.622;7.746;2023-04-19T10:28:29;4.47;;;3.30;;
77304;SDS011;66364;52.622;7.746;2023-04-19T10:30:30;6.33;;;2.27;;
77304;SDS011;66364;52.622;7.746;2023-04-19T10:32:41;4.23;;;2.90;;
77304;SDS011;66364;52.622;7.746;2023-04-19T10:34:47;3.58;;;2.80;;
77304;SDS011;66364;52.622;7.746;2023-04-19T10:36:48;4.28;;;3.52;;
77304;SDS011;66364;52.622;7.746;2023-04-19T10:38:49;2.80;;;2.60;;
77304;SDS011;66364;52.622;7.746;2023-04-19T10:45:32;4.62;;;3.35;;
77304;SDS011;66364;52.622;7.746;2023-04-19T10:47:42;3.35;;;3.12;;
77304;SDS011;66364;52.622;7.746;2023-04-19T10:49:46;4.03;;;3.05;;
77304;SDS011;66364;52.622;7.746;2023-04-19T10:51:49;3.70;;;3.35;;
77304;SDS011;66364;52.622;7.746;2023-04-19T10:53:55;3.40;;;2.60;;
77304;SDS011;66364;52.622;7.746;2023-04-19T10:56:00;3.98;;;2.85;;
77304;SDS011;66364;52.622;7.746;2023-04-19T10:58:05;4.62;;;2.80;;
77304;SDS011;66364;52.622;7.746;2023-04-19T11:00:19;5.20;;;3.98;;
77304;SDS011;66364;52.622;7.746;2023-04-19T11:06:34;3.67;;;3.37;;
77304;SDS011;66364;52.622;7.746;2023-04-19T11:08:41;3.80;;;3.40;;
77304;SDS011;66364;52.622;7.746;2023-04-19T11:10:42;4.50;;;3.58;;
77304;SDS011;66364;52.622;7.746;2023-04-19T11:12:43;3.83;;;3.15;;
77304;SDS011;66364;52.622;7.746;2023-04-19T11:14:51;3.15;;;2.95;;
77304;SDS011;66364;52.622;7.746;2023-04-19T11:16:55;3.05;;;2.75;;
77304;SDS011;66364;52.622;7.746;2023-04-19T11:18:56;5.80;;;2.80;;
77304;SDS011;66364;52.622;7.746;2023-04-19T11:20:57;2.90;;;2.63;;
77304;SDS011;66364;52.622;7.746;2023-04-19T11:22:58;3.67;;;3.10;;
77304;SDS011;66364;52.622;7.746;2023-04-19T11:27:18;3.58;;;2.80;;
77304;SDS011;66364;52.622;7.746;2023-04-19T11:29:21;2.62;;;2.42;;
77304;SDS011;66364;52.622;7.746;2023-04-19T11:31:22;5.05;;;3.12;;
77304;SDS011;66364;52.622;7.746;2023-04-19T11:33:24;3.05;;;2.50;;
77304;SDS011;66364;52.622;7.746;2023-04-19T11:35:26;4.93;;;2.80;;
77304;SDS011;66364;52.622;7.746;2023-04-19T11:37:37;3.27;;;2.90;;
77304;SDS011;66364;52.622;7.746;2023-04-19T11:39:45;3.92;;;2.77;;
77304;SDS011;66364;52.622;7.746;2023-04-19T11:41:46;3.17;;;2.98;;
77304;SDS011;66364;52.622;7.746;2023-04-19T11:43:47;2.70;;;2.50;;
77304;SDS011;66364;52.622;7.746;2023-04-19T11:45:49;7.10;;;2.90;;
77304;SDS011;66364;52.622;7.746;2023-04-19T11:47:50;2.90;;;2.70;;
77304;SDS011;66364;52.622;7.746;2023-04-19T11:49:51;4.50;;;3.22;;
77304;SDS011;66364;52.622;7.746;2023-04-19T11:51:55;5.70;;;3.10;;
77304;SDS011;66364;52.622;7.746;2023-04-19T11:53:57;8.63;;;3.75;;
77304;SDS011;66364;52.622;7.746;2023-04-19T11:56:05;5.28;;;3.50;;
77304;SDS011;66364;52.622;7.746;2023-04-19T11:58:07;3.72;;;3.30;;
77304;SDS011;66364;52.622;7.746;2023-04-19T12:00:08;4.80;;;3.60;;
77304;SDS011;66364;52.622;7.746;2023-04-19T12:02:11;3.25;;;3.00;;
77304;SDS011;66364;52.622;7.746;2023-04-19T12:04:12;3.35;;;3.05;;
77304;SDS011;66364;52.622;7.746;2023-04-19T12:06:17;6.15;;;3.35;;
77304;SDS011;66364;52.622;7.746;2023-04-19T12:08:29;3.60;;;3.25;;
77304;SDS011;66364;52.622;7.746;2023-04-19T12:10:32;6.12;;;2.95;;
77304;SDS011;66364;52.622;7.746;2023-04-19T12:12:34;4.05;;;3.12;;
77304;SDS011;66364;52.622;7.746;2023-04-19T12:14:36;5.92;;;3.35;;
77304;SDS011;66364;52.622;7.746;2023-04-19T12:16:37;4.10;;;3.80;;
77304;SDS011;66364;52.622;7.746;2023-04-19T12:18:47;4.40;;;2.90;;
77304;SDS011;66364;52.622;7.746;2023-04-19T12:20:50;4.25;;;3.33;;
77304;SDS011;66364;52.622;7.746;2023-04-19T12:22:53;3.45;;;3.00;;
77304;SDS011;66364;52.622;7.746;2023-04-19T12:24:53;3.27;;;2.97;;
77304;SDS011;66364;52.622;7.746;2023-04-19T12:26:55;4.23;;;3.60;;
77304;SDS011;66364;52.622;7.746;2023-04-19T12:28:57;3.50;;;2.95;;
77304;SDS011;66364;52.622;7.746;2023-04-19T12:31:00;3.08;;;2.87;;